sensor_id;sensor_type;location;lat;lon;timestamp;P1;durP1;ratioP1;P2;durP2;ratioP2
58017;SDS011;43810;50.860;19.226;2023-04-24T00:00:20;10.20;;;7.22;;
58017;SDS011;43810;50.860;19.226;2023-04-24T00:03:06;12.55;;;8.00;;
58017;SDS011;43810;50.860;19.226;2023-04-24T00:05:32;13.20;;;8.02;;
58017;SDS011;43810;50.860;19.226;2023-04-24T00:07:58;12.55;;;8.43;;
58017;SDS011;43810;50.860;19.226;2023-04-24T00:10:24;11.82;;;8.05;;
58017;SDS011;43810;50.860;19.226;2023-04-24T00:12:50;13.35;;;8.90;;
58017;SDS011;43810;50.860;19.226;2023-04-24T00:15:15;15.60;;;8.73;;
58017;SDS011;43810;50.860;19.226;2023-04-24T00:17:41;17.67;;;10.02;;
58017;SDS011;43810;50.860;19.226;2023-04-24T00:20:07;38.80;;;14.68;;
58017;SDS011;43810;50.860;19.226;2023-04-24T00:22:35;25.05;;;13.00;;
58017;SDS011;43810;50.860;19.226;2023-04-24T00:25:01;27.02;;;12.40;;
58017;SDS011;43810;50.860;19.226;2023-04-24T00:27:27;19.95;;;10.52;;
58017;SDS011;43810;50.860;19.226;2023-04-24T00:29:53;15.50;;;9.98;;
58017;SDS011;43810;50.860;19.226;2023-04-24T00:32:18;15.75;;;9.95;;
58017;SDS011;43810;50.860;19.226;2023-04-24T00:34:44;14.40;;;9.02;;
58017;SDS011;43810;50.860;19.226;2023-04-24T00:37:10;15.68;;;9.57;;
58017;SDS011;43810;50.860;19.226;2023-04-24T00:39:37;13.60;;;8.23;;
58017;SDS011;43810;50.860;19.226;2023-04-24T00:42:02;16.35;;;8.63;;
58017;SDS011;43810;50.860;19.226;2023-04-24T00:44:28;13.10;;;7.35;;
58017;SDS011;43810;50.860;19.226;2023-04-24T00:46:54;11.13;;;7.50;;
58017;SDS011;43810;50.860;19.226;2023-04-24T00:49:21;13.82;;;8.07;;
58017;SDS011;43810;50.860;19.226;2023-04-24T00:51:47;12.68;;;7.78;;
58017;SDS011;43810;50.860;19.226;2023-04-24T00:54:14;14.68;;;8.43;;
58017;SDS011;43810;50.860;19.226;2023-04-24T00:56:41;14.38;;;8.27;;
58017;SDS011;43810;50.860;19.226;2023-04-24T00:59:08;16.63;;;9.80;;
58017;SDS011;43810;50.860;19.226;2023-04-24T01:01:34;11.38;;;7.82;;
58017;SDS011;43810;50.860;19.226;2023-04-24T01:04:01;11.93;;;7.60;;
58017;SDS011;43810;50.860;19.226;2023-04-24T01:06:28;11.05;;;6.95;;
58017;SDS011;43810;50.860;19.226;2023-04-24T01:08:57;10.15;;;7.32;;
58017;SDS011;43810;50.860;19.226;2023-04-24T01:11:24;12.73;;;8.02;;
58017;SDS011;43810;50.860;19.226;2023-04-24T01:13:51;13.25;;;7.95;;
58017;SDS011;43810;50.860;19.226;2023-04-24T01:16:17;13.00;;;8.07;;
58017;SDS011;43810;50.860;19.226;2023-04-24T01:18:46;11.95;;;7.55;;
58017;SDS011;43810;50.860;19.226;2023-04-24T01:21:14;12.52;;;7.68;;
58017;SDS011;43810;50.860;19.226;2023-04-24T01:23:44;14.23;;;8.45;;
58017;SDS011;43810;50.860;19.226;2023-04-24T01:26:10;11.60;;;7.30;;
58017;SDS011;43810;50.860;19.226;2023-04-24T01:28:37;12.80;;;7.55;;
58017;SDS011;43810;50.860;19.226;2023-04-24T01:31:03;12.15;;;7.82;;
58017;SDS011;43810;50.860;19.226;2023-04-24T01:33:29;12.45;;;7.20;;
58017;SDS011;43810;50.860;19.226;2023-04-24T01:35:55;15.77;;;9.40;;
58017;SDS011;43810;50.860;19.226;2023-04-24T01:38:21;13.68;;;8.15;;
58017;SDS011;43810;50.860;19.226;2023-04-24T01:40:46;14.80;;;8.45;;
58017;SDS011;43810;50.860;19.226;2023-04-24T01:43:13;16.55;;;8.15;;
58017;SDS011;43810;50.860;19.226;2023-04-24T01:45:38;12.55;;;7.70;;
58017;SDS011;43810;50.860;19.226;2023-04-24T01:48:04;14.73;;;8.90;;
58017;SDS011;43810;50.860;19.226;2023-04-24T01:50:30;13.70;;;8.35;;
58017;SDS011;43810;50.860;19.226;2023-04-24T01:52:56;13.70;;;8.68;;
58017;SDS011;43810;50.860;19.226;2023-04-24T01:55:22;15.50;;;8.52;;
58017;SDS011;43810;50.860;19.226;2023-04-24T01:57:48;12.73;;;8.23;;
58017;SDS011;43810;50.860;19.226;2023-04-24T02:00:14;12.80;;;8.65;;
58017;SDS011;43810;50.860;19.226;2023-04-24T02:02:40;18.38;;;10.07;;
58017;SDS011;43810;50.860;19.226;2023-04-24T02:05:07;15.43;;;9.23;;
58017;SDS011;43810;50.860;19.226;2023-04-24T02:07:34;14.77;;;8.45;;
58017;SDS011;43810;50.860;19.226;2023-04-24T02:09:59;14.15;;;8.38;;
58017;SDS011;43810;50.860;19.226;2023-04-24T02:12:25;12.80;;;7.85;;
58017;SDS011;43810;50.860;19.226;2023-04-24T02:14:51;13.35;;;8.73;;
58017;SDS011;43810;50.860;19.226;2023-04-24T02:17:17;14.20;;;8.13;;
58017;SDS011;43810;50.860;19.226;2023-04-24T02:19:44;14.48;;;8.88;;
58017;SDS011;43810;50.860;19.226;2023-04-24T02:22:11;13.32;;;8.32;;
58017;SDS011;43810;50.860;19.226;2023-04-24T02:24:37;16.63;;;10.07;;
58017;SDS011;43810;50.860;19.226;2023-04-24T02:27:03;15.98;;;9.48;;
58017;SDS011;43810;50.860;19.226;2023-04-24T02:29:30;13.70;;;9.20;;
58017;SDS011;43810;50.860;19.226;2023-04-24T02:31:56;17.15;;;8.30;;
58017;SDS011;43810;50.860;19.226;2023-04-24T02:34:22;14.73;;;7.75;;
58017;SDS011;43810;50.860;19.226;2023-04-24T02:36:48;9.82;;;7.05;;
58017;SDS011;43810;50.860;19.226;2023-04-24T02:39:14;16.17;;;6.90;;
58017;SDS011;43810;50.860;19.226;2023-04-24T02:41:42;13.80;;;7.75;;
58017;SDS011;43810;50.860;19.226;2023-04-24T02:44:08;13.70;;;7.07;;
58017;SDS011;43810;50.860;19.226;2023-04-24T02:46:34;11.25;;;6.72;;
58017;SDS011;43810;50.860;19.226;2023-04-24T02:49:00;9.48;;;6.88;;
58017;SDS011;43810;50.860;19.226;2023-04-24T02:51:26;7.97;;;6.25;;
58017;SDS011;43810;50.860;19.226;2023-04-24T02:53:52;11.88;;;6.93;;
58017;SDS011;43810;50.860;19.226;2023-04-24T02:56:18;12.18;;;7.95;;
58017;SDS011;43810;50.860;19.226;2023-04-24T02:58:44;10.45;;;6.68;;
58017;SDS011;43810;50.860;19.226;2023-04-24T03:01:10;12.07;;;6.97;;
58017;SDS011;43810;50.860;19.226;2023-04-24T03:03:36;11.75;;;7.50;;
58017;SDS011;43810;50.860;19.226;2023-04-24T03:06:03;13.45;;;7.15;;
58017;SDS011;43810;50.860;19.226;2023-04-24T03:08:31;13.60;;;8.05;;
58017;SDS011;43810;50.860;19.226;2023-04-24T03:10:57;13.00;;;8.23;;
58017;SDS011;43810;50.860;19.226;2023-04-24T03:13:23;12.93;;;8.30;;
58017;SDS011;43810;50.860;19.226;2023-04-24T03:15:49;14.07;;;8.45;;
58017;SDS011;43810;50.860;19.226;2023-04-24T03:18:15;14.52;;;8.90;;
58017;SDS011;43810;50.860;19.226;2023-04-24T03:20:40;13.70;;;8.63;;
58017;SDS011;43810;50.860;19.226;2023-04-24T03:23:06;11.98;;;8.05;;
58017;SDS011;43810;50.860;19.226;2023-04-24T03:25:32;17.48;;;9.00;;
58017;SDS011;43810;50.860;19.226;2023-04-24T03:27:58;15.38;;;8.40;;
58017;SDS011;43810;50.860;19.226;2023-04-24T03:30:24;13.32;;;9.23;;
58017;SDS011;43810;50.860;19.226;2023-04-24T03:32:49;13.85;;;9.63;;
58017;SDS011;43810;50.860;19.226;2023-04-24T03:35:15;14.35;;;8.63;;
58017;SDS011;43810;50.860;19.226;2023-04-24T03:37:41;16.65;;;9.52;;
58017;SDS011;43810;50.860;19.226;2023-04-24T03:40:07;14.95;;;8.70;;
58017;SDS011;43810;50.860;19.226;2023-04-24T03:42:33;16.02;;;9.18;;
58017;SDS011;43810;50.860;19.226;2023-04-24T03:44:59;21.10;;;9.63;;
58017;SDS011;43810;50.860;19.226;2023-04-24T03:47:24;20.50;;;9.02;;
58017;SDS011;43810;50.860;19.226;2023-04-24T03:49:50;15.65;;;9.02;;
58017;SDS011;43810;50.860;19.226;2023-04-24T03:52:16;16.30;;;9.43;;
58017;SDS011;43810;50.860;19.226;2023-04-24T03:54:42;14.40;;;8.20;;
58017;SDS011;43810;50.860;19.226;2023-04-24T03:57:08;15.88;;;8.52;;
58017;SDS011;43810;50.860;19.226;2023-04-24T03:59:34;15.52;;;8.50;;
58017;SDS011;43810;50.860;19.226;2023-04-24T04:02:00;15.52;;;8.43;;
58017;SDS011;43810;50.860;19.226;2023-04-24T04:04:26;14.93;;;7.85;;
58017;SDS011;43810;50.860;19.226;2023-04-24T04:06:51;16.52;;;8.40;;
58017;SDS011;43810;50.860;19.226;2023-04-24T04:09:18;13.13;;;7.88;;
58017;SDS011;43810;50.860;19.226;2023-04-24T04:11:44;10.55;;;7.68;;
58017;SDS011;43810;50.860;19.226;2023-04-24T04:14:10;12.77;;;8.18;;
58017;SDS011;43810;50.860;19.226;2023-04-24T04:16:36;14.55;;;8.30;;
58017;SDS011;43810;50.860;19.226;2023-04-24T04:19:02;13.30;;;8.38;;
58017;SDS011;43810;50.860;19.226;2023-04-24T04:21:28;16.30;;;9.13;;
58017;SDS011;43810;50.860;19.226;2023-04-24T04:23:56;13.52;;;8.20;;
58017;SDS011;43810;50.860;19.226;2023-04-24T04:26:22;16.23;;;8.32;;
58017;SDS011;43810;50.860;19.226;2023-04-24T04:28:51;10.43;;;7.30;;
58017;SDS011;43810;50.860;19.226;2023-04-24T04:31:18;17.85;;;7.97;;
58017;SDS011;43810;50.860;19.226;2023-04-24T04:33:47;17.73;;;8.13;;
58017;SDS011;43810;50.860;19.226;2023-04-24T04:36:12;14.07;;;7.53;;
58017;SDS011;43810;50.860;19.226;2023-04-24T04:38:38;16.90;;;7.97;;
58017;SDS011;43810;50.860;19.226;2023-04-24T04:41:05;16.20;;;8.05;;
58017;SDS011;43810;50.860;19.226;2023-04-24T04:43:32;21.30;;;8.07;;
58017;SDS011;43810;50.860;19.226;2023-04-24T04:45:59;12.25;;;8.18;;
58017;SDS011;43810;50.860;19.226;2023-04-24T04:48:26;15.50;;;8.20;;
58017;SDS011;43810;50.860;19.226;2023-04-24T04:50:52;13.32;;;7.68;;
58017;SDS011;43810;50.860;19.226;2023-04-24T04:53:18;13.32;;;7.80;;
58017;SDS011;43810;50.860;19.226;2023-04-24T04:55:44;13.68;;;7.82;;
58017;SDS011;43810;50.860;19.226;2023-04-24T04:58:10;10.88;;;7.55;;
58017;SDS011;43810;50.860;19.226;2023-04-24T05:00:38;14.07;;;8.70;;
58017;SDS011;43810;50.860;19.226;2023-04-24T05:03:04;9.95;;;7.78;;
58017;SDS011;43810;50.860;19.226;2023-04-24T05:05:30;12.23;;;7.90;;
58017;SDS011;43810;50.860;19.226;2023-04-24T05:07:56;16.90;;;8.32;;
58017;SDS011;43810;50.860;19.226;2023-04-24T05:10:24;12.82;;;8.88;;
58017;SDS011;43810;50.860;19.226;2023-04-24T05:12:50;14.23;;;8.60;;
58017;SDS011;43810;50.860;19.226;2023-04-24T05:15:16;13.43;;;8.00;;
58017;SDS011;43810;50.860;19.226;2023-04-24T05:17:42;14.05;;;7.18;;
58017;SDS011;43810;50.860;19.226;2023-04-24T05:20:08;11.90;;;7.40;;
58017;SDS011;43810;50.860;19.226;2023-04-24T05:22:35;14.07;;;7.07;;
58017;SDS011;43810;50.860;19.226;2023-04-24T05:25:03;13.00;;;7.80;;
58017;SDS011;43810;50.860;19.226;2023-04-24T05:27:29;15.57;;;8.02;;
58017;SDS011;43810;50.860;19.226;2023-04-24T05:29:55;17.27;;;8.48;;
58017;SDS011;43810;50.860;19.226;2023-04-24T05:32:28;13.27;;;7.88;;
58017;SDS011;43810;50.860;19.226;2023-04-24T05:34:54;15.13;;;7.85;;
58017;SDS011;43810;50.860;19.226;2023-04-24T05:37:20;9.85;;;5.88;;
58017;SDS011;43810;50.860;19.226;2023-04-24T05:39:46;14.77;;;7.05;;
58017;SDS011;43810;50.860;19.226;2023-04-24T05:42:12;11.45;;;6.38;;
58017;SDS011;43810;50.860;19.226;2023-04-24T05:44:38;11.85;;;6.22;;
58017;SDS011;43810;50.860;19.226;2023-04-24T05:47:04;11.20;;;6.07;;
58017;SDS011;43810;50.860;19.226;2023-04-24T05:49:29;18.15;;;6.82;;
58017;SDS011;43810;50.860;19.226;2023-04-24T05:51:56;11.93;;;6.72;;
58017;SDS011;43810;50.860;19.226;2023-04-24T05:54:22;12.13;;;6.05;;
58017;SDS011;43810;50.860;19.226;2023-04-24T05:56:49;14.02;;;6.40;;
58017;SDS011;43810;50.860;19.226;2023-04-24T05:59:16;11.98;;;5.75;;
58017;SDS011;43810;50.860;19.226;2023-04-24T06:01:42;13.50;;;5.65;;
58017;SDS011;43810;50.860;19.226;2023-04-24T06:04:07;11.15;;;5.65;;
58017;SDS011;43810;50.860;19.226;2023-04-24T06:06:34;14.65;;;5.70;;
58017;SDS011;43810;50.860;19.226;2023-04-24T06:09:00;11.80;;;5.00;;
58017;SDS011;43810;50.860;19.226;2023-04-24T06:11:26;9.50;;;5.68;;
58017;SDS011;43810;50.860;19.226;2023-04-24T06:13:52;10.23;;;5.78;;
58017;SDS011;43810;50.860;19.226;2023-04-24T06:16:20;13.02;;;4.90;;
58017;SDS011;43810;50.860;19.226;2023-04-24T06:18:46;11.88;;;4.68;;
58017;SDS011;43810;50.860;19.226;2023-04-24T06:21:13;10.35;;;4.72;;
58017;SDS011;43810;50.860;19.226;2023-04-24T06:23:38;8.68;;;4.80;;
58017;SDS011;43810;50.860;19.226;2023-04-24T06:26:04;8.15;;;5.70;;
58017;SDS011;43810;50.860;19.226;2023-04-24T06:28:30;11.50;;;6.47;;
58017;SDS011;43810;50.860;19.226;2023-04-24T06:30:56;8.95;;;5.53;;
58017;SDS011;43810;50.860;19.226;2023-04-24T06:33:21;10.88;;;6.35;;
58017;SDS011;43810;50.860;19.226;2023-04-24T06:35:47;8.60;;;4.43;;
58017;SDS011;43810;50.860;19.226;2023-04-24T06:38:13;7.55;;;4.15;;
58017;SDS011;43810;50.860;19.226;2023-04-24T06:40:39;5.78;;;3.90;;
58017;SDS011;43810;50.860;19.226;2023-04-24T06:43:05;6.35;;;3.95;;
58017;SDS011;43810;50.860;19.226;2023-04-24T06:45:31;6.18;;;4.30;;
58017;SDS011;43810;50.860;19.226;2023-04-24T06:47:57;5.47;;;3.72;;
58017;SDS011;43810;50.860;19.226;2023-04-24T06:50:23;10.65;;;4.32;;
58017;SDS011;43810;50.860;19.226;2023-04-24T06:52:49;6.97;;;4.15;;
58017;SDS011;43810;50.860;19.226;2023-04-24T06:55:15;6.72;;;3.75;;
58017;SDS011;43810;50.860;19.226;2023-04-24T06:57:42;11.07;;;4.60;;
58017;SDS011;43810;50.860;19.226;2023-04-24T07:00:10;8.55;;;4.00;;
58017;SDS011;43810;50.860;19.226;2023-04-24T07:02:37;8.10;;;4.43;;
58017;SDS011;43810;50.860;19.226;2023-04-24T07:05:03;6.60;;;4.63;;
58017;SDS011;43810;50.860;19.226;2023-04-24T07:07:30;5.00;;;4.20;;
58017;SDS011;43810;50.860;19.226;2023-04-24T07:09:56;4.78;;;4.07;;
58017;SDS011;43810;50.860;19.226;2023-04-24T07:12:22;8.27;;;4.75;;
58017;SDS011;43810;50.860;19.226;2023-04-24T07:14:49;8.00;;;4.25;;
58017;SDS011;43810;50.860;19.226;2023-04-24T07:17:16;6.35;;;4.00;;
58017;SDS011;43810;50.860;19.226;2023-04-24T07:19:42;9.43;;;3.90;;
58017;SDS011;43810;50.860;19.226;2023-04-24T07:22:07;8.23;;;4.55;;
58017;SDS011;43810;50.860;19.226;2023-04-24T07:24:33;8.60;;;4.38;;
58017;SDS011;43810;50.860;19.226;2023-04-24T07:26:59;5.60;;;3.90;;
58017;SDS011;43810;50.860;19.226;2023-04-24T07:29:26;8.70;;;3.95;;
58017;SDS011;43810;50.860;19.226;2023-04-24T07:31:52;5.82;;;3.30;;
58017;SDS011;43810;50.860;19.226;2023-04-24T07:34:19;13.05;;;4.50;;
58017;SDS011;43810;50.860;19.226;2023-04-24T07:36:45;8.00;;;4.22;;
58017;SDS011;43810;50.860;19.226;2023-04-24T07:39:11;6.03;;;4.07;;
58017;SDS011;43810;50.860;19.226;2023-04-24T07:41:37;7.45;;;4.20;;
58017;SDS011;43810;50.860;19.226;2023-04-24T07:44:03;6.68;;;4.00;;
58017;SDS011;43810;50.860;19.226;2023-04-24T07:46:29;7.72;;;4.38;;
58017;SDS011;43810;50.860;19.226;2023-04-24T07:48:55;6.30;;;4.43;;
58017;SDS011;43810;50.860;19.226;2023-04-24T07:51:21;9.25;;;4.80;;
58017;SDS011;43810;50.860;19.226;2023-04-24T07:53:47;11.07;;;4.40;;
58017;SDS011;43810;50.860;19.226;2023-04-24T07:56:13;9.50;;;4.47;;
58017;SDS011;43810;50.860;19.226;2023-04-24T07:58:39;9.25;;;4.40;;
58017;SDS011;43810;50.860;19.226;2023-04-24T08:01:05;7.53;;;4.07;;
58017;SDS011;43810;50.860;19.226;2023-04-24T08:03:31;8.25;;;3.97;;
58017;SDS011;43810;50.860;19.226;2023-04-24T08:05:56;9.38;;;4.10;;
58017;SDS011;43810;50.860;19.226;2023-04-24T08:08:22;4.65;;;3.65;;
58017;SDS011;43810;50.860;19.226;2023-04-24T08:10:48;6.22;;;4.50;;
58017;SDS011;43810;50.860;19.226;2023-04-24T08:13:14;7.07;;;4.20;;
58017;SDS011;43810;50.860;19.226;2023-04-24T08:15:40;8.65;;;4.70;;
58017;SDS011;43810;50.860;19.226;2023-04-24T08:18:06;9.23;;;4.07;;
58017;SDS011;43810;50.860;19.226;2023-04-24T08:20:32;6.35;;;3.80;;
58017;SDS011;43810;50.860;19.226;2023-04-24T08:22:58;5.03;;;3.38;;
58017;SDS011;43810;50.860;19.226;2023-04-24T08:25:24;6.60;;;3.50;;
58017;SDS011;43810;50.860;19.226;2023-04-24T08:27:50;9.25;;;3.80;;
58017;SDS011;43810;50.860;19.226;2023-04-24T08:30:17;6.43;;;3.83;;
58017;SDS011;43810;50.860;19.226;2023-04-24T08:32:43;9.77;;;3.70;;
58017;SDS011;43810;50.860;19.226;2023-04-24T08:35:09;5.15;;;3.55;;
58017;SDS011;43810;50.860;19.226;2023-04-24T08:37:35;9.13;;;4.22;;
58017;SDS011;43810;50.860;19.226;2023-04-24T08:40:21;4.70;;;3.90;;
58017;SDS011;43810;50.860;19.226;2023-04-24T08:42:52;7.63;;;3.95;;
58017;SDS011;43810;50.860;19.226;2023-04-24T08:45:21;7.47;;;3.78;;
58017;SDS011;43810;50.860;19.226;2023-04-24T08:47:47;6.22;;;3.67;;
58017;SDS011;43810;50.860;19.226;2023-04-24T08:50:14;7.70;;;4.10;;
58017;SDS011;43810;50.860;19.226;2023-04-24T08:52:40;6.63;;;3.90;;
58017;SDS011;43810;50.860;19.226;2023-04-24T08:55:07;5.32;;;3.58;;
58017;SDS011;43810;50.860;19.226;2023-04-24T08:57:34;5.55;;;3.78;;
58017;SDS011;43810;50.860;19.226;2023-04-24T09:00:03;6.28;;;3.75;;
58017;SDS011;43810;50.860;19.226;2023-04-24T09:02:30;5.80;;;3.95;;
58017;SDS011;43810;50.860;19.226;2023-04-24T09:04:57;4.88;;;3.38;;
58017;SDS011;43810;50.860;19.226;2023-04-24T09:07:26;9.13;;;4.03;;
58017;SDS011;43810;50.860;19.226;2023-04-24T09:09:54;5.82;;;3.70;;
58017;SDS011;43810;50.860;19.226;2023-04-24T09:12:20;9.70;;;3.28;;
58017;SDS011;43810;50.860;19.226;2023-04-24T09:14:46;5.65;;;3.97;;
58017;SDS011;43810;50.860;19.226;2023-04-24T09:17:14;4.35;;;3.72;;
58017;SDS011;43810;50.860;19.226;2023-04-24T09:19:40;4.85;;;3.70;;
58017;SDS011;43810;50.860;19.226;2023-04-24T09:22:07;4.65;;;3.35;;
58017;SDS011;43810;50.860;19.226;2023-04-24T09:24:33;5.82;;;3.40;;
58017;SDS011;43810;50.860;19.226;2023-04-24T09:27:00;12.32;;;4.05;;
58017;SDS011;43810;50.860;19.226;2023-04-24T09:29:27;8.02;;;3.53;;
58017;SDS011;43810;50.860;19.226;2023-04-24T09:31:53;5.47;;;3.35;;
58017;SDS011;43810;50.860;19.226;2023-04-24T09:34:22;5.85;;;3.78;;
58017;SDS011;43810;50.860;19.226;2023-04-24T09:36:49;6.63;;;3.58;;
58017;SDS011;43810;50.860;19.226;2023-04-24T09:39:16;7.68;;;3.22;;
58017;SDS011;43810;50.860;19.226;2023-04-24T09:41:46;6.43;;;3.60;;
58017;SDS011;43810;50.860;19.226;2023-04-24T09:44:14;6.25;;;3.25;;
58017;SDS011;43810;50.860;19.226;2023-04-24T09:46:45;3.45;;;3.08;;
58017;SDS011;43810;50.860;19.226;2023-04-24T09:49:16;5.53;;;3.63;;
58017;SDS011;43810;50.860;19.226;2023-04-24T09:51:47;7.38;;;3.50;;
58017;SDS011;43810;50.860;19.226;2023-04-24T09:54:14;4.68;;;3.38;;
58017;SDS011;43810;50.860;19.226;2023-04-24T09:56:46;8.38;;;3.55;;
58017;SDS011;43810;50.860;19.226;2023-04-24T09:59:13;6.15;;;3.47;;
58017;SDS011;43810;50.860;19.226;2023-04-24T10:01:41;6.10;;;3.63;;
58017;SDS011;43810;50.860;19.226;2023-04-24T10:04:15;5.10;;;3.67;;
58017;SDS011;43810;50.860;19.226;2023-04-24T10:06:46;7.47;;;3.80;;
58017;SDS011;43810;50.860;19.226;2023-04-24T10:09:14;9.30;;;5.75;;
58017;SDS011;43810;50.860;19.226;2023-04-24T10:11:42;7.68;;;4.72;;
58017;SDS011;43810;50.860;19.226;2023-04-24T10:14:12;7.45;;;3.53;;
58017;SDS011;43810;50.860;19.226;2023-04-24T10:16:42;6.07;;;3.60;;
58017;SDS011;43810;50.860;19.226;2023-04-24T10:19:09;6.15;;;3.72;;
58017;SDS011;43810;50.860;19.226;2023-04-24T10:21:36;4.68;;;3.65;;
58017;SDS011;43810;50.860;19.226;2023-04-24T10:24:10;7.53;;;4.85;;
58017;SDS011;43810;50.860;19.226;2023-04-24T10:26:38;6.07;;;4.68;;
58017;SDS011;43810;50.860;19.226;2023-04-24T10:29:05;5.43;;;3.75;;
58017;SDS011;43810;50.860;19.226;2023-04-24T10:31:36;5.20;;;3.70;;
58017;SDS011;43810;50.860;19.226;2023-04-24T10:34:03;7.82;;;3.47;;
58017;SDS011;43810;50.860;19.226;2023-04-24T10:36:30;5.13;;;3.33;;
58017;SDS011;43810;50.860;19.226;2023-04-24T10:38:59;19.60;;;11.45;;
58017;SDS011;43810;50.860;19.226;2023-04-24T10:41:27;5.55;;;3.92;;
58017;SDS011;43810;50.860;19.226;2023-04-24T10:44:05;4.05;;;3.47;;
58017;SDS011;43810;50.860;19.226;2023-04-24T10:46:32;11.90;;;6.82;;
58017;SDS011;43810;50.860;19.226;2023-04-24T10:48:58;6.40;;;3.97;;
58017;SDS011;43810;50.860;19.226;2023-04-24T10:51:24;8.23;;;4.75;;
58017;SDS011;43810;50.860;19.226;2023-04-24T10:54:27;6.70;;;3.05;;
58017;SDS011;43810;50.860;19.226;2023-04-24T10:59:47;3.28;;;2.50;;
58017;SDS011;43810;50.860;19.226;2023-04-24T11:02:15;3.15;;;2.80;;
58017;SDS011;43810;50.860;19.226;2023-04-24T11:04:41;6.35;;;2.78;;
58017;SDS011;43810;50.860;19.226;2023-04-24T11:07:09;6.20;;;4.13;;
58017;SDS011;43810;50.860;19.226;2023-04-24T11:09:35;26.70;;;12.18;;
58017;SDS011;43810;50.860;19.226;2023-04-24T11:12:20;17.95;;;8.98;;
58017;SDS011;43810;50.860;19.226;2023-04-24T11:17:32;7.13;;;4.55;;
58017;SDS011;43810;50.860;19.226;2023-04-24T11:20:05;4.25;;;2.75;;
58017;SDS011;43810;50.860;19.226;2023-04-24T11:22:42;4.47;;;2.75;;
58017;SDS011;43810;50.860;19.226;2023-04-24T11:25:08;11.27;;;7.30;;
58017;SDS011;43810;50.860;19.226;2023-04-24T11:27:44;3.78;;;2.45;;
58017;SDS011;43810;50.860;19.226;2023-04-24T11:30:16;4.47;;;3.25;;
58017;SDS011;43810;50.860;19.226;2023-04-24T11:32:43;4.32;;;2.40;;
58017;SDS011;43810;50.860;19.226;2023-04-24T11:37:45;3.92;;;2.10;;
58017;SDS011;43810;50.860;19.226;2023-04-24T11:40:16;3.20;;;2.10;;
58017;SDS011;43810;50.860;19.226;2023-04-24T11:42:43;2.75;;;1.95;;
58017;SDS011;43810;50.860;19.226;2023-04-24T11:45:14;4.03;;;2.17;;
58017;SDS011;43810;50.860;19.226;2023-04-24T11:47:42;4.55;;;2.22;;
58017;SDS011;43810;50.860;19.226;2023-04-24T11:50:38;3.63;;;2.80;;
58017;SDS011;43810;50.860;19.226;2023-04-24T11:53:04;3.70;;;2.20;;
58017;SDS011;43810;50.860;19.226;2023-04-24T11:55:30;5.03;;;2.42;;
58017;SDS011;43810;50.860;19.226;2023-04-24T11:57:57;3.50;;;2.50;;
58017;SDS011;43810;50.860;19.226;2023-04-24T12:00:27;3.53;;;2.50;;
58017;SDS011;43810;50.860;19.226;2023-04-24T12:03:04;3.17;;;2.60;;
58017;SDS011;43810;50.860;19.226;2023-04-24T12:05:31;3.83;;;2.80;;
58017;SDS011;43810;50.860;19.226;2023-04-24T12:07:57;3.72;;;2.80;;
58017;SDS011;43810;50.860;19.226;2023-04-24T12:10:26;3.05;;;2.65;;
58017;SDS011;43810;50.860;19.226;2023-04-24T12:12:54;3.47;;;2.63;;
58017;SDS011;43810;50.860;19.226;2023-04-24T12:15:22;4.25;;;2.80;;
58017;SDS011;43810;50.860;19.226;2023-04-24T12:17:50;3.17;;;2.42;;
58017;SDS011;43810;50.860;19.226;2023-04-24T12:20:17;4.97;;;3.13;;
58017;SDS011;43810;50.860;19.226;2023-04-24T12:22:46;3.28;;;2.80;;
58017;SDS011;43810;50.860;19.226;2023-04-24T12:25:17;4.80;;;3.10;;
58017;SDS011;43810;50.860;19.226;2023-04-24T12:27:44;4.22;;;2.90;;
58017;SDS011;43810;50.860;19.226;2023-04-24T12:30:12;5.13;;;3.00;;
58017;SDS011;43810;50.860;19.226;2023-04-24T12:32:44;2.95;;;2.65;;
58017;SDS011;43810;50.860;19.226;2023-04-24T12:35:11;3.58;;;3.03;;
58017;SDS011;43810;50.860;19.226;2023-04-24T12:37:38;4.07;;;3.10;;
58017;SDS011;43810;50.860;19.226;2023-04-24T12:40:11;3.20;;;2.75;;
58017;SDS011;43810;50.860;19.226;2023-04-24T12:42:45;4.85;;;2.88;;
58017;SDS011;43810;50.860;19.226;2023-04-24T12:45:12;7.53;;;3.08;;
58017;SDS011;43810;50.860;19.226;2023-04-24T12:47:40;7.80;;;4.18;;
58017;SDS011;43810;50.860;19.226;2023-04-24T12:50:10;4.93;;;3.47;;
58017;SDS011;43810;50.860;19.226;2023-04-24T12:52:38;4.35;;;3.00;;
58017;SDS011;43810;50.860;19.226;2023-04-24T12:55:05;5.65;;;3.17;;
58017;SDS011;43810;50.860;19.226;2023-04-24T12:57:35;4.65;;;3.25;;
58017;SDS011;43810;50.860;19.226;2023-04-24T13:00:02;5.43;;;3.58;;
58017;SDS011;43810;50.860;19.226;2023-04-24T13:02:30;5.68;;;3.97;;
58017;SDS011;43810;50.860;19.226;2023-04-24T13:04:56;5.90;;;4.47;;
58017;SDS011;43810;50.860;19.226;2023-04-24T13:07:24;6.53;;;3.92;;
58017;SDS011;43810;50.860;19.226;2023-04-24T13:09:50;8.70;;;4.03;;
58017;SDS011;43810;50.860;19.226;2023-04-24T13:12:17;5.85;;;4.45;;
58017;SDS011;43810;50.860;19.226;2023-04-24T13:14:43;8.82;;;4.78;;
58017;SDS011;43810;50.860;19.226;2023-04-24T13:17:11;6.00;;;4.63;;
58017;SDS011;43810;50.860;19.226;2023-04-24T13:19:41;7.15;;;4.88;;
58017;SDS011;43810;50.860;19.226;2023-04-24T13:22:11;5.75;;;4.85;;
58017;SDS011;43810;50.860;19.226;2023-04-24T13:24:40;8.77;;;4.15;;
58017;SDS011;43810;50.860;19.226;2023-04-24T13:27:07;5.18;;;4.25;;
58017;SDS011;43810;50.860;19.226;2023-04-24T13:29:34;3.75;;;3.30;;
58017;SDS011;43810;50.860;19.226;2023-04-24T13:32:00;7.35;;;4.05;;
58017;SDS011;43810;50.860;19.226;2023-04-24T13:34:26;6.25;;;4.28;;
58017;SDS011;43810;50.860;19.226;2023-04-24T13:36:52;13.07;;;5.78;;
58017;SDS011;43810;50.860;19.226;2023-04-24T13:39:19;8.60;;;5.88;;
58017;SDS011;43810;50.860;19.226;2023-04-24T13:41:47;15.00;;;5.75;;
58017;SDS011;43810;50.860;19.226;2023-04-24T13:44:13;10.45;;;5.05;;
58017;SDS011;43810;50.860;19.226;2023-04-24T13:46:41;11.38;;;5.25;;
58017;SDS011;43810;50.860;19.226;2023-04-24T13:49:09;11.48;;;6.20;;
58017;SDS011;43810;50.860;19.226;2023-04-24T13:51:35;9.13;;;5.40;;
58017;SDS011;43810;50.860;19.226;2023-04-24T13:54:01;12.63;;;7.30;;
58017;SDS011;43810;50.860;19.226;2023-04-24T13:56:27;8.40;;;5.68;;
58017;SDS011;43810;50.860;19.226;2023-04-24T13:58:53;9.88;;;5.00;;
58017;SDS011;43810;50.860;19.226;2023-04-24T14:01:22;7.97;;;5.75;;
58017;SDS011;43810;50.860;19.226;2023-04-24T14:03:52;11.55;;;5.70;;
58017;SDS011;43810;50.860;19.226;2023-04-24T14:06:19;10.15;;;5.65;;
58017;SDS011;43810;50.860;19.226;2023-04-24T14:08:45;12.07;;;6.10;;
58017;SDS011;43810;50.860;19.226;2023-04-24T14:11:11;11.30;;;5.38;;
58017;SDS011;43810;50.860;19.226;2023-04-24T14:13:37;9.48;;;6.57;;
58017;SDS011;43810;50.860;19.226;2023-04-24T14:16:04;9.60;;;6.03;;
58017;SDS011;43810;50.860;19.226;2023-04-24T14:18:30;11.63;;;6.35;;
58017;SDS011;43810;50.860;19.226;2023-04-24T14:20:56;10.45;;;6.57;;
58017;SDS011;43810;50.860;19.226;2023-04-24T14:23:22;11.23;;;6.20;;
58017;SDS011;43810;50.860;19.226;2023-04-24T14:25:49;7.93;;;6.05;;
58017;SDS011;43810;50.860;19.226;2023-04-24T14:28:18;7.75;;;6.45;;
58017;SDS011;43810;50.860;19.226;2023-04-24T14:30:48;13.70;;;6.78;;
58017;SDS011;43810;50.860;19.226;2023-04-24T14:33:14;9.75;;;6.38;;
58017;SDS011;43810;50.860;19.226;2023-04-24T14:35:41;10.50;;;6.63;;